Integrity — WDF4881 — position and weather

sailwx.info

Track history (hours):
 
Tides and Currents Weather Stations Pressure Air Temp Water Temp Dewpoint Dewpoint Depression Visibility Wind Speed Wind Dir Waves Ship Positions

Integrity

Owner: Canal Barge Company, Inc., Belle Chasse, LA. More information available from US FCC via Universal Licensing System and Coast Guard Vessel Documentation Center.

Last reported at 2017-Jul-12 16:44 UTC. Time now 2017-Jul-22 02:51 UTC.
Position N 29°34' W 090°31'.
Warning: this ship's position is 9 days out of date.

Length 19 m; draft 2.8 m.

Type: Towing. MMSI: 367456830.

Date/timePositionNaut miles runAvg speedWind from/ knotsBaromVisibWave heightAir tempDewpointWater temp
2017-Jul-12 16:44N 29°34' W 090°31'1 5.4
2017-Jul-12 16:31N 29°34' W 090°32'3 5.2
2017-Jul-12 16:00N 29°35' W 090°35'1 2.0
2017-Jul-12 15:30N 29°35' W 090°36'1 2.5
2017-Jul-12 15:00N 29°35' W 090°37'3 2.9
2017-Jul-12 14:00N 29°36' W 090°40'2 3.5
2017-Jul-12 13:31N 29°37' W 090°42'2 3.5
2017-Jul-12 13:00N 29°35' W 090°43'1 2.6
2017-Jul-12 12:31N 29°34' W 090°44'2 4.6
2017-Jul-12 12:00N 29°32' W 090°46'3 5.7
2017-Jul-12 11:30N 29°32' W 090°49'5 5.9
2017-Jul-12 10:42N 29°33' W 090°54'1 6.1
2017-Jul-12 10:28N 29°34' W 090°56'58 4.0
2017-Jul-11 19:52N 29°50' W 091°60'2 4.8
2017-Jul-11 19:24N 29°49' W 092°02'2 4.7
2017-Jul-11 19:00N 29°48' W 092°04'2 4.6
2017-Jul-11 18:31N 29°48' W 092°07'2 4.9
2017-Jul-11 18:01N 29°47' W 092°09'1 1.2
2017-Jul-11 17:30N 29°47' W 092°10'1 2.4
2017-Jul-11 17:00N 29°47' W 092°11'2 3.2
2017-Jul-11 16:31N 29°47' W 092°13'2 4.5
2017-Jul-11 16:00N 29°48' W 092°15'2 4.8
2017-Jul-11 15:31N 29°50' W 092°18'2 4.7
2017-Jul-11 15:01N 29°51' W 092°20'3 4.6
2017-Jul-11 14:27N 29°52' W 092°22'37 4.4
2017-Jul-11 06:14N 29°56' W 093°04'1 3.9
2017-Jul-11 06:00N 29°56' W 093°05'2 4.3
2017-Jul-11 05:30N 29°56' W 093°08'2 3.9
2017-Jul-11 05:00N 29°57' W 093°10'2 4.4
2017-Jul-11 04:30N 29°58' W 093°12'2 4.3
2017-Jul-11 04:01N 29°60' W 093°13'2 3.7
2017-Jul-11 03:30N 30°02' W 093°14'2 3.8
2017-Jul-11 03:01N 30°03' W 093°16'2 4.2
2017-Jul-11 02:31N 30°05' W 093°17'1 2.5
2017-Jul-11 02:01N 30°06' W 093°18'1 2.1
2017-Jul-11 01:31N 30°06' W 093°19'0 0.1
2017-Jul-11 01:00N 30°06' W 093°19'0 0.1
2017-Jul-11 00:31N 30°06' W 093°19'1 1.0
2017-Jul-11 00:00N 30°06' W 093°20'2 4.7
2017-Jul-10 23:30N 30°08' W 093°20'2 4.3
2017-Jul-10 23:01N 30°10' W 093°19'2 4.9
2017-Jul-10 22:31N 30°12' W 093°17'2 3.1
2017-Jul-10 22:00N 30°13' W 093°16'1 1.0
2017-Jul-10 21:30N 30°13' W 093°16'0 0.1
2017-Jul-10 21:01N 30°13' W 093°16'0 0.0
2017-Jul-10 20:30N 30°13' W 093°16'0 0.0
2017-Jul-10 20:01N 30°13' W 093°16'0 0.0
2017-Jul-10 19:30N 30°13' W 093°16'0 0.0
2017-Jul-10 19:00N 30°13' W 093°16'0 0.0
2017-Jul-10 18:31N 30°13' W 093°16'0 0.0
2017-Jul-10 18:00N 30°13' W 093°16'0 0.0
2017-Jul-10 17:30N 30°13' W 093°16'0 0.0
2017-Jul-10 17:00N 30°13' W 093°16'0 0.0
2017-Jul-10 16:30N 30°13' W 093°16'0 0.0
2017-Jul-10 16:01N 30°13' W 093°16'0 0.0
2017-Jul-10 15:30N 30°13' W 093°16'0 0.0
2017-Jul-10 15:00N 30°13' W 093°16'0 0.0
2017-Jul-10 14:30N 30°13' W 093°16'0 0.0
2017-Jul-10 14:01N 30°13' W 093°16'0 0.0
2017-Jul-10 13:31N 30°13' W 093°16'0 0.0
2017-Jul-10 13:01N 30°13' W 093°16'0 0.0
2017-Jul-10 12:30N 30°13' W 093°16'0 0.0
2017-Jul-10 12:00N 30°13' W 093°16'0 0.0
2017-Jul-10 11:31N 30°13' W 093°16'0 0.0
2017-Jul-10 11:01N 30°13' W 093°16'0 0.0
2017-Jul-10 10:30N 30°13' W 093°16'0 0.0
2017-Jul-10 10:00N 30°13' W 093°16'0 0.0
2017-Jul-10 09:30N 30°13' W 093°16'0 0.0
2017-Jul-10 09:01N 30°13' W 093°16'0 0.0
2017-Jul-10 08:30N 30°13' W 093°16'0 0.0
2017-Jul-10 08:01N 30°13' W 093°16'0 0.0
2017-Jul-10 07:30N 30°13' W 093°16'0 0.0
2017-Jul-10 07:01N 30°13' W 093°16'0 0.0
2017-Jul-10 06:31N 30°13' W 093°16'0 0.0
2017-Jul-10 06:01N 30°13' W 093°16'0 0.0
2017-Jul-10 05:31N 30°13' W 093°16'0 0.0
2017-Jul-10 05:01N 30°13' W 093°16'0 0.0
2017-Jul-10 04:30N 30°13' W 093°16'0 0.0
2017-Jul-10 04:01N 30°13' W 093°16'0 0.0
2017-Jul-10 03:30N 30°13' W 093°16'0 0.0
2017-Jul-10 03:00N 30°13' W 093°16'0 0.0
2017-Jul-10 02:31N 30°13' W 093°16'0 0.0
2017-Jul-10 02:00N 30°13' W 093°16'0 0.0
2017-Jul-10 01:31N 30°13' W 093°16'0 0.0
2017-Jul-10 01:00N 30°13' W 093°16'0 0.0
2017-Jul-10 00:30N 30°13' W 093°16'0 0.0
2017-Jul-10 00:00N 30°13' W 093°16'0 0.0
2017-Jul-09 23:31N 30°13' W 093°16'0 0.0
2017-Jul-09 23:01N 30°13' W 093°16'0 0.0
2017-Jul-09 22:30N 30°13' W 093°16'0 0.0
2017-Jul-09 22:01N 30°13' W 093°16'0 0.0
2017-Jul-09 21:30N 30°13' W 093°16'0 0.0
2017-Jul-09 21:00N 30°13' W 093°16'0 0.0
2017-Jul-09 20:31N 30°13' W 093°16'0 0.0
2017-Jul-09 20:00N 30°13' W 093°16'0 0.0
2017-Jul-09 19:30N 30°13' W 093°16'0 0.0
2017-Jul-09 19:00N 30°13' W 093°16'0 0.0
2017-Jul-09 18:30N 30°13' W 093°16'0 0.0
2017-Jul-09 18:00N 30°13' W 093°16'0 0.0
2017-Jul-09 17:30N 30°13' W 093°16'0 0.0
2017-Jul-09 17:01N 30°13' W 093°16'0 0.0
2017-Jul-09 16:31N 30°13' W 093°16'0 0.0
2017-Jul-09 16:00N 30°13' W 093°16'0 0.0
2017-Jul-09 15:31N 30°13' W 093°16'0 0.0
2017-Jul-09 15:00N 30°13' W 093°16'0 0.0
2017-Jul-09 14:30N 30°13' W 093°16'0 0.0
2017-Jul-09 14:01N 30°13' W 093°16'0 0.0
2017-Jul-09 13:30N 30°13' W 093°16'0 0.0
2017-Jul-09 13:00N 30°13' W 093°16'0 0.0
2017-Jul-09 12:31N 30°13' W 093°16'0 0.0
2017-Jul-09 12:00N 30°13' W 093°16'0 0.0
2017-Jul-09 11:31N 30°13' W 093°16'0 0.0
2017-Jul-09 11:01N 30°13' W 093°16'0 0.0
2017-Jul-09 10:31N 30°13' W 093°16'0 0.0
2017-Jul-09 10:00N 30°13' W 093°16'0 0.0
2017-Jul-09 09:30N 30°13' W 093°16'0 0.0
2017-Jul-09 09:00N 30°13' W 093°16'0 0.0
2017-Jul-09 08:31N 30°13' W 093°16'0 0.0
2017-Jul-09 08:00N 30°13' W 093°16'0 0.0
2017-Jul-09 07:31N 30°13' W 093°16'0 0.0
2017-Jul-09 07:01N 30°13' W 093°16'0 0.0
2017-Jul-09 06:30N 30°13' W 093°16'0 0.0
2017-Jul-09 06:00N 30°13' W 093°16'0 0.0
2017-Jul-09 05:31N 30°13' W 093°16'0 0.0
2017-Jul-09 05:00N 30°13' W 093°16'0 0.0
2017-Jul-09 04:31N 30°13' W 093°16'0 0.0
2017-Jul-09 04:00N 30°13' W 093°16'0 0.0
2017-Jul-09 03:30N 30°13' W 093°16'0 0.0
2017-Jul-09 03:01N 30°13' W 093°16'0 0.0
2017-Jul-09 02:30N 30°13' W 093°16'0 0.0
2017-Jul-09 02:01N 30°13' W 093°16'0 0.0
2017-Jul-09 01:30N 30°13' W 093°16'0 0.0
2017-Jul-09 01:01N 30°13' W 093°16'0 0.0
2017-Jul-09 00:30N 30°13' W 093°16'0 0.0
2017-Jul-09 00:00N 30°13' W 093°16'0 0.0
2017-Jul-08 23:30N 30°13' W 093°16'1 1.8
2017-Jul-08 23:00N 30°12' W 093°16'3 5.1
2017-Jul-08 22:31N 30°11' W 093°19'2 4.6
2017-Jul-08 22:00N 30°09' W 093°20'2 4.1
2017-Jul-08 21:30N 30°07' W 093°20'1 2.8
2017-Jul-08 21:00N 30°06' W 093°19'1 1.1
2017-Jul-08 20:31N 30°06' W 093°19'0 0.0
2017-Jul-08 20:00N 30°06' W 093°19'0 0.0
2017-Jul-08 19:31N 30°06' W 093°19'0 0.0
2017-Jul-08 19:01N 30°06' W 093°19'0 0.0
2017-Jul-08 18:30N 30°06' W 093°19'0 0.0
2017-Jul-08 18:01N 30°06' W 093°19'0 0.0
2017-Jul-08 17:31N 30°06' W 093°19'0 0.1
2017-Jul-08 17:00N 30°06' W 093°19'1 1.2
2017-Jul-08 16:31N 30°06' W 093°19'2 3.5
2017-Jul-08 16:01N 30°07' W 093°20'2 4.6
2017-Jul-08 15:31N 30°10' W 093°19'2 4.8
2017-Jul-08 15:01N 30°12' W 093°18'3 2.9
2017-Jul-08 14:00N 30°14' W 093°15'0 0.1
2017-Jul-08 13:30N 30°14' W 093°15'0 0.0
2017-Jul-08 13:00N 30°14' W 093°15'0 0.0
2017-Jul-08 12:30N 30°14' W 093°15'0 0.0
2017-Jul-08 12:01N 30°14' W 093°15'0 0.0
2017-Jul-08 11:31N 30°14' W 093°15'0 0.0
2017-Jul-08 11:00N 30°14' W 093°15'0 0.0
2017-Jul-08 10:31N 30°14' W 093°15'0 0.0
2017-Jul-08 10:01N 30°14' W 093°15'0 0.0
2017-Jul-08 09:30N 30°14' W 093°15'0 0.0
2017-Jul-08 09:00N 30°14' W 093°15'0 0.0
2017-Jul-08 08:30N 30°14' W 093°15'0 0.0
2017-Jul-08 08:00N 30°14' W 093°15'0 0.0
2017-Jul-08 07:31N 30°14' W 093°15'0 0.0
2017-Jul-08 07:01N 30°14' W 093°15'0 0.0
2017-Jul-08 06:30N 30°14' W 093°15'0 0.0
2017-Jul-08 06:00N 30°14' W 093°15'0 0.0
2017-Jul-08 05:31N 30°14' W 093°15'0 0.0
2017-Jul-08 05:00N 30°14' W 093°15'0 0.0
2017-Jul-08 04:31N 30°14' W 093°15'0 0.0
2017-Jul-08 04:00N 30°14' W 093°15'0 0.0
2017-Jul-08 03:30N 30°14' W 093°15'0 0.0
2017-Jul-08 03:01N 30°14' W 093°15'0 0.0
2017-Jul-08 02:31N 30°14' W 093°15'0 0.0
2017-Jul-08 02:00N 30°14' W 093°15'0 0.0
2017-Jul-08 01:30N 30°14' W 093°15'0 0.0
2017-Jul-08 01:01N 30°14' W 093°15'0 0.0
2017-Jul-08 00:31N 30°14' W 093°15'0 0.0
2017-Jul-08 00:00N 30°14' W 093°15'0 0.0
2017-Jul-07 23:30N 30°14' W 093°15'0 0.0
2017-Jul-07 23:01N 30°14' W 093°15'0 0.0
2017-Jul-07 22:30N 30°14' W 093°15'0 0.4
2017-Jul-07 22:01N 30°14' W 093°16'0 0.1
2017-Jul-07 21:30N 30°14' W 093°16'0 0.0
2017-Jul-07 21:00N 30°14' W 093°16'0 0.0
2017-Jul-07 20:31N 30°14' W 093°16'0 0.0
2017-Jul-07 20:00N 30°14' W 093°16'0 0.0
2017-Jul-07 19:30N 30°14' W 093°16'0 0.0
2017-Jul-07 19:00N 30°14' W 093°16'0 0.0
2017-Jul-07 18:31N 30°14' W 093°16'0 0.0
2017-Jul-07 18:01N 30°14' W 093°16'0 0.0
2017-Jul-07 17:31N 30°14' W 093°16'0 0.0
2017-Jul-07 17:00N 30°14' W 093°16'0 0.0
2017-Jul-07 16:30N 30°14' W 093°16'0 0.0
2017-Jul-07 16:00N 30°14' W 093°16'0 0.0
2017-Jul-07 15:30N 30°14' W 093°16'0 0.1
2017-Jul-07 15:01N 30°14' W 093°16'3 2.7
2017-Jul-07 14:01N 30°12' W 093°18'3 6.0
2017-Jul-07 13:30N 30°09' W 093°20'3 5.3
2017-Jul-07 13:01N 30°07' W 093°20'2 4.7
2017-Jul-07 12:31N 30°04' W 093°21'2 3.6
2017-Jul-07 12:01N 30°04' W 093°22'3 5.2
2017-Jul-07 11:30N 30°04' W 093°25'3 5.5
2017-Jul-07 11:00N 30°04' W 093°29'2 4.7
2017-Jul-07 10:30N 30°04' W 093°31'3 5.8
2017-Jul-07 10:00N 30°04' W 093°35'3 5.7
2017-Jul-07 09:30N 30°03' W 093°38'3 5.9
2017-Jul-07 09:01N 30°03' W 093°41'  
2017-Jul-03 04:14N 30°04' W 093°41'2 6.0
2017-Jul-03 03:53N 30°04' W 093°39'2 5.4
2017-Jul-03 03:26N 30°04' W 093°36'2 4.5
2017-Jul-03 03:00N 30°04' W 093°34'2 4.5
2017-Jul-03 02:30N 30°04' W 093°31'2 4.7
2017-Jul-03 02:00N 30°04' W 093°28'2 4.6
2017-Jul-03 01:30N 30°04' W 093°26'2 4.4
2017-Jul-03 01:01N 30°04' W 093°23'2 3.0
2017-Jul-03 00:31N 30°04' W 093°21'1 2.8
2017-Jul-03 00:00N 30°05' W 093°20'1 2.8
2017-Jul-02 23:31N 30°06' W 093°20'2 3.9
2017-Jul-02 23:00N 30°08' W 093°20'1 1.4
2017-Jul-02 22:30N 30°08' W 093°19'0 0.0
2017-Jul-02 22:01N 30°08' W 093°19'0 0.0
2017-Jul-02 21:31N 30°08' W 093°19'0 0.0
2017-Jul-02 21:01N 30°08' W 093°19'0 0.0
2017-Jul-02 20:31N 30°08' W 093°19'0 0.0
2017-Jul-02 20:01N 30°08' W 093°19'0 0.0
2017-Jul-02 19:30N 30°08' W 093°19'0 0.0
2017-Jul-02 19:01N 30°08' W 093°19'0 0.0
2017-Jul-02 18:31N 30°08' W 093°19'0 0.0
2017-Jul-02 18:00N 30°08' W 093°19'0 0.0
2017-Jul-02 17:31N 30°08' W 093°19'0 0.0
2017-Jul-02 17:01N 30°08' W 093°19'  
Track history (hours):
 
Tides and Currents Weather Stations Pressure Air Temp Water Temp Dewpoint Dewpoint Depression Visibility Wind Speed Wind Dir Waves Ship Positions

Integrity

Owner: Canal Barge Company, Inc., Belle Chasse, LA. More information available from US FCC via Universal Licensing System and Coast Guard Vessel Documentation Center.

Last reported at 2017-Jul-12 16:44 UTC. Time now 2017-Jul-22 02:51 UTC.
Position N 29°34' W 090°31'.
Warning: this ship's position is 9 days out of date.

Length 19 m; draft 2.8 m.

Type: Towing. MMSI: 367456830.

Date/timePositionNaut miles runAvg speedWind from/ knotsBaromVisibWave heightAir tempDewpointWater temp
2017-Jul-12 16:44N 29°34' W 090°31'1 5.4
2017-Jul-12 16:31N 29°34' W 090°32'3 5.2
2017-Jul-12 16:00N 29°35' W 090°35'1 2.0
2017-Jul-12 15:30N 29°35' W 090°36'1 2.5
2017-Jul-12 15:00N 29°35' W 090°37'3 2.9
2017-Jul-12 14:00N 29°36' W 090°40'2 3.5
2017-Jul-12 13:31N 29°37' W 090°42'2 3.5
2017-Jul-12 13:00N 29°35' W 090°43'1 2.6
2017-Jul-12 12:31N 29°34' W 090°44'2 4.6
2017-Jul-12 12:00N 29°32' W 090°46'3 5.7
2017-Jul-12 11:30N 29°32' W 090°49'5 5.9
2017-Jul-12 10:42N 29°33' W 090°54'1 6.1
2017-Jul-12 10:28N 29°34' W 090°56'58 4.0
2017-Jul-11 19:52N 29°50' W 091°60'2 4.8
2017-Jul-11 19:24N 29°49' W 092°02'2 4.7
2017-Jul-11 19:00N 29°48' W 092°04'2 4.6
2017-Jul-11 18:31N 29°48' W 092°07'2 4.9
2017-Jul-11 18:01N 29°47' W 092°09'1 1.2
2017-Jul-11 17:30N 29°47' W 092°10'1 2.4
2017-Jul-11 17:00N 29°47' W 092°11'2 3.2
2017-Jul-11 16:31N 29°47' W 092°13'2 4.5
2017-Jul-11 16:00N 29°48' W 092°15'2 4.8
2017-Jul-11 15:31N 29°50' W 092°18'2 4.7
2017-Jul-11 15:01N 29°51' W 092°20'3 4.6
2017-Jul-11 14:27N 29°52' W 092°22'37 4.4
2017-Jul-11 06:14N 29°56' W 093°04'1 3.9
2017-Jul-11 06:00N 29°56' W 093°05'2 4.3
2017-Jul-11 05:30N 29°56' W 093°08'2 3.9
2017-Jul-11 05:00N 29°57' W 093°10'2 4.4
2017-Jul-11 04:30N 29°58' W 093°12'2 4.3
2017-Jul-11 04:01N 29°60' W 093°13'2 3.7
2017-Jul-11 03:30N 30°02' W 093°14'2 3.8
2017-Jul-11 03:01N 30°03' W 093°16'2 4.2
2017-Jul-11 02:31N 30°05' W 093°17'1 2.5
2017-Jul-11 02:01N 30°06' W 093°18'1 2.1
2017-Jul-11 01:31N 30°06' W 093°19'0 0.1
2017-Jul-11 01:00N 30°06' W 093°19'0 0.1
2017-Jul-11 00:31N 30°06' W 093°19'1 1.0
2017-Jul-11 00:00N 30°06' W 093°20'2 4.7
2017-Jul-10 23:30N 30°08' W 093°20'2 4.3
2017-Jul-10 23:01N 30°10' W 093°19'2 4.9
2017-Jul-10 22:31N 30°12' W 093°17'2 3.1
2017-Jul-10 22:00N 30°13' W 093°16'1 1.0
2017-Jul-10 21:30N 30°13' W 093°16'0 0.1
2017-Jul-10 21:01N 30°13' W 093°16'0 0.0
2017-Jul-10 20:30N 30°13' W 093°16'0 0.0
2017-Jul-10 20:01N 30°13' W 093°16'0 0.0
2017-Jul-10 19:30N 30°13' W 093°16'0 0.0
2017-Jul-10 19:00N 30°13' W 093°16'0 0.0
2017-Jul-10 18:31N 30°13' W 093°16'0 0.0
2017-Jul-10 18:00N 30°13' W 093°16'0 0.0
2017-Jul-10 17:30N 30°13' W 093°16'0 0.0
2017-Jul-10 17:00N 30°13' W 093°16'0 0.0
2017-Jul-10 16:30N 30°13' W 093°16'0 0.0
2017-Jul-10 16:01N 30°13' W 093°16'0 0.0
2017-Jul-10 15:30N 30°13' W 093°16'0 0.0
2017-Jul-10 15:00N 30°13' W 093°16'0 0.0
2017-Jul-10 14:30N 30°13' W 093°16'0 0.0
2017-Jul-10 14:01N 30°13' W 093°16'0 0.0
2017-Jul-10 13:31N 30°13' W 093°16'0 0.0
2017-Jul-10 13:01N 30°13' W 093°16'0 0.0
2017-Jul-10 12:30N 30°13' W 093°16'0 0.0
2017-Jul-10 12:00N 30°13' W 093°16'0 0.0
2017-Jul-10 11:31N 30°13' W 093°16'0 0.0
2017-Jul-10 11:01N 30°13' W 093°16'0 0.0
2017-Jul-10 10:30N 30°13' W 093°16'0 0.0
2017-Jul-10 10:00N 30°13' W 093°16'0 0.0
2017-Jul-10 09:30N 30°13' W 093°16'0 0.0
2017-Jul-10 09:01N 30°13' W 093°16'0 0.0
2017-Jul-10 08:30N 30°13' W 093°16'0 0.0
2017-Jul-10 08:01N 30°13' W 093°16'0 0.0
2017-Jul-10 07:30N 30°13' W 093°16'0 0.0
2017-Jul-10 07:01N 30°13' W 093°16'0 0.0
2017-Jul-10 06:31N 30°13' W 093°16'0 0.0
2017-Jul-10 06:01N 30°13' W 093°16'0 0.0
2017-Jul-10 05:31N 30°13' W 093°16'0 0.0
2017-Jul-10 05:01N 30°13' W 093°16'0 0.0
2017-Jul-10 04:30N 30°13' W 093°16'0 0.0
2017-Jul-10 04:01N 30°13' W 093°16'0 0.0
2017-Jul-10 03:30N 30°13' W 093°16'0 0.0
2017-Jul-10 03:00N 30°13' W 093°16'0 0.0
2017-Jul-10 02:31N 30°13' W 093°16'0 0.0
2017-Jul-10 02:00N 30°13' W 093°16'0 0.0
2017-Jul-10 01:31N 30°13' W 093°16'0 0.0
2017-Jul-10 01:00N 30°13' W 093°16'0 0.0
2017-Jul-10 00:30N 30°13' W 093°16'0 0.0
2017-Jul-10 00:00N 30°13' W 093°16'0 0.0
2017-Jul-09 23:31N 30°13' W 093°16'0 0.0
2017-Jul-09 23:01N 30°13' W 093°16'0 0.0
2017-Jul-09 22:30N 30°13' W 093°16'0 0.0
2017-Jul-09 22:01N 30°13' W 093°16'0 0.0
2017-Jul-09 21:30N 30°13' W 093°16'0 0.0
2017-Jul-09 21:00N 30°13' W 093°16'0 0.0
2017-Jul-09 20:31N 30°13' W 093°16'0 0.0
2017-Jul-09 20:00N 30°13' W 093°16'0 0.0
2017-Jul-09 19:30N 30°13' W 093°16'0 0.0
2017-Jul-09 19:00N 30°13' W 093°16'0 0.0
2017-Jul-09 18:30N 30°13' W 093°16'0 0.0
2017-Jul-09 18:00N 30°13' W 093°16'0 0.0
2017-Jul-09 17:30N 30°13' W 093°16'0 0.0
2017-Jul-09 17:01N 30°13' W 093°16'0 0.0
2017-Jul-09 16:31N 30°13' W 093°16'0 0.0
2017-Jul-09 16:00N 30°13' W 093°16'0 0.0
2017-Jul-09 15:31N 30°13' W 093°16'0 0.0
2017-Jul-09 15:00N 30°13' W 093°16'0 0.0
2017-Jul-09 14:30N 30°13' W 093°16'0 0.0
2017-Jul-09 14:01N 30°13' W 093°16'0 0.0
2017-Jul-09 13:30N 30°13' W 093°16'0 0.0
2017-Jul-09 13:00N 30°13' W 093°16'0 0.0
2017-Jul-09 12:31N 30°13' W 093°16'0 0.0
2017-Jul-09 12:00N 30°13' W 093°16'0 0.0
2017-Jul-09 11:31N 30°13' W 093°16'0 0.0
2017-Jul-09 11:01N 30°13' W 093°16'0 0.0
2017-Jul-09 10:31N 30°13' W 093°16'0 0.0
2017-Jul-09 10:00N 30°13' W 093°16'0 0.0
2017-Jul-09 09:30N 30°13' W 093°16'0 0.0
2017-Jul-09 09:00N 30°13' W 093°16'0 0.0
2017-Jul-09 08:31N 30°13' W 093°16'0 0.0
2017-Jul-09 08:00N 30°13' W 093°16'0 0.0
2017-Jul-09 07:31N 30°13' W 093°16'0 0.0
2017-Jul-09 07:01N 30°13' W 093°16'0 0.0
2017-Jul-09 06:30N 30°13' W 093°16'0 0.0
2017-Jul-09 06:00N 30°13' W 093°16'0 0.0
2017-Jul-09 05:31N 30°13' W 093°16'0 0.0
2017-Jul-09 05:00N 30°13' W 093°16'0 0.0
2017-Jul-09 04:31N 30°13' W 093°16'0 0.0
2017-Jul-09 04:00N 30°13' W 093°16'0 0.0
2017-Jul-09 03:30N 30°13' W 093°16'0 0.0
2017-Jul-09 03:01N 30°13' W 093°16'0 0.0
2017-Jul-09 02:30N 30°13' W 093°16'0 0.0
2017-Jul-09 02:01N 30°13' W 093°16'0 0.0
2017-Jul-09 01:30N 30°13' W 093°16'0 0.0
2017-Jul-09 01:01N 30°13' W 093°16'0 0.0
2017-Jul-09 00:30N 30°13' W 093°16'0 0.0
2017-Jul-09 00:00N 30°13' W 093°16'0 0.0
2017-Jul-08 23:30N 30°13' W 093°16'1 1.8
2017-Jul-08 23:00N 30°12' W 093°16'3 5.1
2017-Jul-08 22:31N 30°11' W 093°19'2 4.6
2017-Jul-08 22:00N 30°09' W 093°20'2 4.1
2017-Jul-08 21:30N 30°07' W 093°20'1 2.8
2017-Jul-08 21:00N 30°06' W 093°19'1 1.1
2017-Jul-08 20:31N 30°06' W 093°19'0 0.0
2017-Jul-08 20:00N 30°06' W 093°19'0 0.0
2017-Jul-08 19:31N 30°06' W 093°19'0 0.0
2017-Jul-08 19:01N 30°06' W 093°19'0 0.0
2017-Jul-08 18:30N 30°06' W 093°19'0 0.0
2017-Jul-08 18:01N 30°06' W 093°19'0 0.0
2017-Jul-08 17:31N 30°06' W 093°19'0 0.1
2017-Jul-08 17:00N 30°06' W 093°19'1 1.2
2017-Jul-08 16:31N 30°06' W 093°19'2 3.5
2017-Jul-08 16:01N 30°07' W 093°20'2 4.6
2017-Jul-08 15:31N 30°10' W 093°19'2 4.8
2017-Jul-08 15:01N 30°12' W 093°18'3 2.9
2017-Jul-08 14:00N 30°14' W 093°15'0 0.1
2017-Jul-08 13:30N 30°14' W 093°15'0 0.0
2017-Jul-08 13:00N 30°14' W 093°15'0 0.0
2017-Jul-08 12:30N 30°14' W 093°15'0 0.0
2017-Jul-08 12:01N 30°14' W 093°15'0 0.0
2017-Jul-08 11:31N 30°14' W 093°15'0 0.0
2017-Jul-08 11:00N 30°14' W 093°15'0 0.0
2017-Jul-08 10:31N 30°14' W 093°15'0 0.0
2017-Jul-08 10:01N 30°14' W 093°15'0 0.0
2017-Jul-08 09:30N 30°14' W 093°15'0 0.0
2017-Jul-08 09:00N 30°14' W 093°15'0 0.0
2017-Jul-08 08:30N 30°14' W 093°15'0 0.0
2017-Jul-08 08:00N 30°14' W 093°15'0 0.0
2017-Jul-08 07:31N 30°14' W 093°15'0 0.0
2017-Jul-08 07:01N 30°14' W 093°15'0 0.0
2017-Jul-08 06:30N 30°14' W 093°15'0 0.0
2017-Jul-08 06:00N 30°14' W 093°15'0 0.0
2017-Jul-08 05:31N 30°14' W 093°15'0 0.0
2017-Jul-08 05:00N 30°14' W 093°15'0 0.0
2017-Jul-08 04:31N 30°14' W 093°15'0 0.0
2017-Jul-08 04:00N 30°14' W 093°15'0 0.0
2017-Jul-08 03:30N 30°14' W 093°15'0 0.0
2017-Jul-08 03:01N 30°14' W 093°15'0 0.0
2017-Jul-08 02:31N 30°14' W 093°15'0 0.0
2017-Jul-08 02:00N 30°14' W 093°15'0 0.0
2017-Jul-08 01:30N 30°14' W 093°15'0 0.0
2017-Jul-08 01:01N 30°14' W 093°15'0 0.0
2017-Jul-08 00:31N 30°14' W 093°15'0 0.0
2017-Jul-08 00:00N 30°14' W 093°15'0 0.0
2017-Jul-07 23:30N 30°14' W 093°15'0 0.0
2017-Jul-07 23:01N 30°14' W 093°15'0 0.0
2017-Jul-07 22:30N 30°14' W 093°15'0 0.4
2017-Jul-07 22:01N 30°14' W 093°16'0 0.1
2017-Jul-07 21:30N 30°14' W 093°16'0 0.0
2017-Jul-07 21:00N 30°14' W 093°16'0 0.0
2017-Jul-07 20:31N 30°14' W 093°16'0 0.0
2017-Jul-07 20:00N 30°14' W 093°16'0 0.0
2017-Jul-07 19:30N 30°14' W 093°16'0 0.0
2017-Jul-07 19:00N 30°14' W 093°16'0 0.0
2017-Jul-07 18:31N 30°14' W 093°16'0 0.0
2017-Jul-07 18:01N 30°14' W 093°16'0 0.0
2017-Jul-07 17:31N 30°14' W 093°16'0 0.0
2017-Jul-07 17:00N 30°14' W 093°16'0 0.0
2017-Jul-07 16:30N 30°14' W 093°16'0 0.0
2017-Jul-07 16:00N 30°14' W 093°16'0 0.0
2017-Jul-07 15:30N 30°14' W 093°16'0 0.1
2017-Jul-07 15:01N 30°14' W 093°16'3 2.7
2017-Jul-07 14:01N 30°12' W 093°18'3 6.0
2017-Jul-07 13:30N 30°09' W 093°20'3 5.3
2017-Jul-07 13:01N 30°07' W 093°20'2 4.7
2017-Jul-07 12:31N 30°04' W 093°21'2 3.6
2017-Jul-07 12:01N 30°04' W 093°22'3 5.2
2017-Jul-07 11:30N 30°04' W 093°25'3 5.5
2017-Jul-07 11:00N 30°04' W 093°29'2 4.7
2017-Jul-07 10:30N 30°04' W 093°31'3 5.8
2017-Jul-07 10:00N 30°04' W 093°35'3 5.7
2017-Jul-07 09:30N 30°03' W 093°38'3 5.9
2017-Jul-07 09:01N 30°03' W 093°41'  
2017-Jul-03 04:14N 30°04' W 093°41'2 6.0
2017-Jul-03 03:53N 30°04' W 093°39'2 5.4
2017-Jul-03 03:26N 30°04' W 093°36'2 4.5
2017-Jul-03 03:00N 30°04' W 093°34'2 4.5
2017-Jul-03 02:30N 30°04' W 093°31'2 4.7
2017-Jul-03 02:00N 30°04' W 093°28'2 4.6
2017-Jul-03 01:30N 30°04' W 093°26'2 4.4
2017-Jul-03 01:01N 30°04' W 093°23'2 3.0
2017-Jul-03 00:31N 30°04' W 093°21'1 2.8
2017-Jul-03 00:00N 30°05' W 093°20'1 2.8
2017-Jul-02 23:31N 30°06' W 093°20'2 3.9
2017-Jul-02 23:00N 30°08' W 093°20'1 1.4
2017-Jul-02 22:30N 30°08' W 093°19'0 0.0
2017-Jul-02 22:01N 30°08' W 093°19'0 0.0
2017-Jul-02 21:31N 30°08' W 093°19'0 0.0
2017-Jul-02 21:01N 30°08' W 093°19'0 0.0
2017-Jul-02 20:31N 30°08' W 093°19'0 0.0
2017-Jul-02 20:01N 30°08' W 093°19'0 0.0
2017-Jul-02 19:30N 30°08' W 093°19'0 0.0
2017-Jul-02 19:01N 30°08' W 093°19'0 0.0
2017-Jul-02 18:31N 30°08' W 093°19'0 0.0
2017-Jul-02 18:00N 30°08' W 093°19'0 0.0
2017-Jul-02 17:31N 30°08' W 093°19'0 0.0
2017-Jul-02 17:01N 30°08' W 093°19'  

Dump ship's entire track history